sensor_id;sensor_type;location;lat;lon;timestamp;pressure;altitude;pressure_sealevel;temperature;humidity
58785;BME280;44557;51.862;19.378;2023-06-22T00:00:18;99323.44;;;23.34;86.31
58785;BME280;44557;51.862;19.378;2023-06-22T00:02:41;99324.86;;;23.26;86.82
58785;BME280;44557;51.862;19.378;2023-06-22T00:04:43;99323.16;;;23.27;86.78
58785;BME280;44557;51.862;19.378;2023-06-22T00:06:45;99323.66;;;23.26;86.74
58785;BME280;44557;51.862;19.378;2023-06-22T00:08:47;99331.10;;;23.15;87.57
58785;BME280;44557;51.862;19.378;2023-06-22T00:10:48;99330.95;;;23.16;87.49
58785;BME280;44557;51.862;19.378;2023-06-22T00:12:50;99334.00;;;23.11;87.94
58785;BME280;44557;51.862;19.378;2023-06-22T00:14:52;99334.80;;;22.99;88.54
58785;BME280;44557;51.862;19.378;2023-06-22T00:16:54;99331.97;;;23.13;87.29
58785;BME280;44557;51.862;19.378;2023-06-22T00:19:00;99330.42;;;23.30;86.10
58785;BME280;44557;51.862;19.378;2023-06-22T00:21:03;99333.51;;;23.19;86.81
58785;BME280;44557;51.862;19.378;2023-06-22T00:23:05;99337.39;;;23.14;86.86
58785;BME280;44557;51.862;19.378;2023-06-22T00:25:11;99336.14;;;23.38;85.45
58785;BME280;44557;51.862;19.378;2023-06-22T00:27:13;99328.77;;;23.33;85.23
58785;BME280;44557;51.862;19.378;2023-06-22T00:29:14;99332.55;;;23.28;85.61
58785;BME280;44557;51.862;19.378;2023-06-22T00:31:17;99335.39;;;23.31;85.47
58785;BME280;44557;51.862;19.378;2023-06-22T00:33:18;99334.52;;;23.14;86.05
58785;BME280;44557;51.862;19.378;2023-06-22T00:35:20;99328.17;;;23.14;86.03
58785;BME280;44557;51.862;19.378;2023-06-22T00:37:22;99329.02;;;23.12;86.26
58785;BME280;44557;51.862;19.378;2023-06-22T00:39:27;99329.55;;;23.18;85.97
58785;BME280;44557;51.862;19.378;2023-06-22T00:41:28;99335.02;;;23.17;85.84
58785;BME280;44557;51.862;19.378;2023-06-22T00:43:30;99332.48;;;23.11;86.03
58785;BME280;44557;51.862;19.378;2023-06-22T00:45:32;99334.63;;;23.08;85.73
58785;BME280;44557;51.862;19.378;2023-06-22T00:47:34;99340.67;;;22.90;86.99
58785;BME280;44557;51.862;19.378;2023-06-22T00:49:36;99336.14;;;22.78;87.64
58785;BME280;44557;51.862;19.378;2023-06-22T00:51:38;99331.48;;;22.92;86.68
58785;BME280;44557;51.862;19.378;2023-06-22T00:53:41;99327.50;;;23.03;86.01
58785;BME280;44557;51.862;19.378;2023-06-22T00:55:44;99334.16;;;22.68;87.84
58785;BME280;44557;51.862;19.378;2023-06-22T00:57:49;99335.39;;;22.71;87.74
58785;BME280;44557;51.862;19.378;2023-06-22T00:59:51;99332.89;;;22.90;86.57
58785;BME280;44557;51.862;19.378;2023-06-22T01:01:53;99326.55;;;22.84;86.56
58785;BME280;44557;51.862;19.378;2023-06-22T01:03:55;99325.12;;;22.84;86.79
58785;BME280;44557;51.862;19.378;2023-06-22T01:06:02;99328.09;;;22.71;87.37
58785;BME280;44557;51.862;19.378;2023-06-22T01:10:34;99327.80;;;22.70;87.29
58785;BME280;44557;51.862;19.378;2023-06-22T01:12:40;99330.38;;;22.69;87.12
58785;BME280;44557;51.862;19.378;2023-06-22T01:14:47;99335.67;;;22.64;87.24
58785;BME280;44557;51.862;19.378;2023-06-22T01:16:53;99340.48;;;22.59;87.56
58785;BME280;44557;51.862;19.378;2023-06-22T01:18:57;99337.29;;;22.49;88.02
58785;BME280;44557;51.862;19.378;2023-06-22T01:21:01;99339.55;;;22.52;87.74
58785;BME280;44557;51.862;19.378;2023-06-22T01:23:27;99346.14;;;22.37;88.68
58785;BME280;44557;51.862;19.378;2023-06-22T01:25:28;99347.84;;;22.41;88.23
58785;BME280;44557;51.862;19.378;2023-06-22T01:27:36;99346.81;;;22.46;87.93
58785;BME280;44557;51.862;19.378;2023-06-22T01:29:43;99348.30;;;22.58;86.91
58785;BME280;44557;51.862;19.378;2023-06-22T01:31:46;99345.38;;;22.49;87.40
58785;BME280;44557;51.862;19.378;2023-06-22T01:33:54;99347.41;;;22.43;87.90
58785;BME280;44557;51.862;19.378;2023-06-22T01:35:57;99344.83;;;22.48;87.20
58785;BME280;44557;51.862;19.378;2023-06-22T01:37:59;99344.83;;;22.44;87.41
58785;BME280;44557;51.862;19.378;2023-06-22T01:40:01;99346.02;;;22.49;86.90
58785;BME280;44557;51.862;19.378;2023-06-22T01:42:03;99348.44;;;22.44;87.08
58785;BME280;44557;51.862;19.378;2023-06-22T01:44:06;99349.30;;;22.40;87.24
58785;BME280;44557;51.862;19.378;2023-06-22T01:46:08;99354.52;;;22.39;86.81
58785;BME280;44557;51.862;19.378;2023-06-22T01:48:10;99353.98;;;22.33;87.10
58785;BME280;44557;51.862;19.378;2023-06-22T01:50:12;99349.76;;;22.22;87.31
58785;BME280;44557;51.862;19.378;2023-06-22T01:52:14;99351.56;;;22.24;87.21
58785;BME280;44557;51.862;19.378;2023-06-22T01:54:16;99355.79;;;22.31;86.45
58785;BME280;44557;51.862;19.378;2023-06-22T01:56:18;99359.26;;;22.29;86.55
58785;BME280;44557;51.862;19.378;2023-06-22T01:58:21;99358.08;;;22.33;86.16
58785;BME280;44557;51.862;19.378;2023-06-22T02:00:25;99355.63;;;22.20;86.37
58785;BME280;44557;51.862;19.378;2023-06-22T02:02:52;99355.48;;;22.24;86.42
58785;BME280;44557;51.862;19.378;2023-06-22T02:04:58;99360.89;;;22.17;86.57
58785;BME280;44557;51.862;19.378;2023-06-22T02:07:02;99367.73;;;22.15;86.51
58785;BME280;44557;51.862;19.378;2023-06-22T02:09:11;99364.91;;;22.17;86.10
58785;BME280;44557;51.862;19.378;2023-06-22T02:11:14;99364.09;;;22.17;86.19
58785;BME280;44557;51.862;19.378;2023-06-22T02:13:16;99369.80;;;22.00;86.77
58785;BME280;44557;51.862;19.378;2023-06-22T02:15:18;99372.11;;;22.07;86.31
58785;BME280;44557;51.862;19.378;2023-06-22T02:17:20;99370.56;;;22.19;85.51
58785;BME280;44557;51.862;19.378;2023-06-22T02:19:23;99368.45;;;21.99;86.31
58785;BME280;44557;51.862;19.378;2023-06-22T02:21:25;99364.78;;;22.09;85.63
58785;BME280;44557;51.862;19.378;2023-06-22T02:23:27;99365.98;;;22.13;85.13
58785;BME280;44557;51.862;19.378;2023-06-22T02:25:31;99364.98;;;22.12;85.16
58785;BME280;44557;51.862;19.378;2023-06-22T02:27:34;99370.07;;;21.98;85.59
58785;BME280;44557;51.862;19.378;2023-06-22T02:29:36;99364.52;;;21.99;85.51
58785;BME280;44557;51.862;19.378;2023-06-22T02:31:38;99374.60;;;21.90;85.57
58785;BME280;44557;51.862;19.378;2023-06-22T02:33:39;99377.95;;;21.96;85.08
58785;BME280;44557;51.862;19.378;2023-06-22T02:35:41;99380.05;;;22.05;84.40
58785;BME280;44557;51.862;19.378;2023-06-22T02:37:48;99383.40;;;22.02;84.29
58785;BME280;44557;51.862;19.378;2023-06-22T02:39:53;99384.19;;;21.78;85.11
58785;BME280;44557;51.862;19.378;2023-06-22T02:41:55;99390.02;;;21.82;84.97
58785;BME280;44557;51.862;19.378;2023-06-22T02:43:56;99394.64;;;21.75;85.12
58785;BME280;44557;51.862;19.378;2023-06-22T02:45:58;99394.36;;;21.78;85.05
58785;BME280;44557;51.862;19.378;2023-06-22T02:48:00;99398.33;;;21.69;85.04
58785;BME280;44557;51.862;19.378;2023-06-22T02:50:02;99399.51;;;21.84;84.60
58785;BME280;44557;51.862;19.378;2023-06-22T02:52:06;99402.88;;;21.91;83.54
58785;BME280;44557;51.862;19.378;2023-06-22T02:54:08;99406.49;;;21.76;84.17
58785;BME280;44557;51.862;19.378;2023-06-22T02:56:09;99409.33;;;21.60;84.95
58785;BME280;44557;51.862;19.378;2023-06-22T02:58:11;99409.65;;;21.61;84.80
58785;BME280;44557;51.862;19.378;2023-06-22T03:00:13;99410.01;;;21.58;84.91
58785;BME280;44557;51.862;19.378;2023-06-22T03:02:21;99411.91;;;21.65;84.61
58785;BME280;44557;51.862;19.378;2023-06-22T03:04:23;99411.82;;;21.92;82.63
58785;BME280;44557;51.862;19.378;2023-06-22T03:06:25;99409.95;;;21.61;84.24
58785;BME280;44557;51.862;19.378;2023-06-22T03:08:29;99407.71;;;21.47;84.79
58785;BME280;44557;51.862;19.378;2023-06-22T03:10:31;99408.80;;;21.50;84.64
58785;BME280;44557;51.862;19.378;2023-06-22T03:12:33;99412.40;;;21.59;84.41
58785;BME280;44557;51.862;19.378;2023-06-22T03:14:35;99415.19;;;21.52;84.51
58785;BME280;44557;51.862;19.378;2023-06-22T03:16:36;99417.09;;;21.61;84.18
58785;BME280;44557;51.862;19.378;2023-06-22T03:18:38;99417.73;;;21.47;84.73
58785;BME280;44557;51.862;19.378;2023-06-22T03:20:40;99421.88;;;21.63;84.18
58785;BME280;44557;51.862;19.378;2023-06-22T03:22:41;99423.11;;;21.60;84.20
58785;BME280;44557;51.862;19.378;2023-06-22T03:24:43;99430.44;;;21.57;84.36
58785;BME280;44557;51.862;19.378;2023-06-22T03:26:45;99434.00;;;21.61;84.25
58785;BME280;44557;51.862;19.378;2023-06-22T03:28:48;99434.81;;;21.73;83.19
58785;BME280;44557;51.862;19.378;2023-06-22T03:30:50;99433.48;;;21.49;84.13
58785;BME280;44557;51.862;19.378;2023-06-22T03:32:51;99431.11;;;21.54;83.60
58785;BME280;44557;51.862;19.378;2023-06-22T03:34:53;99431.98;;;21.55;83.00
58785;BME280;44557;51.862;19.378;2023-06-22T03:36:55;99428.91;;;21.64;82.55
58785;BME280;44557;51.862;19.378;2023-06-22T03:38:57;99428.31;;;21.68;82.44
58785;BME280;44557;51.862;19.378;2023-06-22T03:40:58;99430.05;;;21.83;81.58
58785;BME280;44557;51.862;19.378;2023-06-22T03:43:00;99432.91;;;21.79;81.75
58785;BME280;44557;51.862;19.378;2023-06-22T03:45:02;99441.11;;;21.76;81.38
58785;BME280;44557;51.862;19.378;2023-06-22T03:47:05;99442.23;;;21.68;81.50
58785;BME280;44557;51.862;19.378;2023-06-22T03:49:08;99438.28;;;21.78;81.37
58785;BME280;44557;51.862;19.378;2023-06-22T03:51:10;99437.26;;;21.96;80.58
58785;BME280;44557;51.862;19.378;2023-06-22T03:53:12;99438.20;;;21.91;80.49
58785;BME280;44557;51.862;19.378;2023-06-22T03:55:14;99444.71;;;21.97;80.63
58785;BME280;44557;51.862;19.378;2023-06-22T03:57:16;99454.20;;;22.06;80.26
58785;BME280;44557;51.862;19.378;2023-06-22T03:59:17;99457.30;;;22.08;80.35
58785;BME280;44557;51.862;19.378;2023-06-22T04:01:19;99461.41;;;22.01;80.53
58785;BME280;44557;51.862;19.378;2023-06-22T04:03:21;99459.70;;;22.32;79.56
58785;BME280;44557;51.862;19.378;2023-06-22T04:05:23;99454.59;;;22.37;78.74
58785;BME280;44557;51.862;19.378;2023-06-22T04:07:26;99451.76;;;22.26;78.65
58785;BME280;44557;51.862;19.378;2023-06-22T04:09:27;99450.64;;;22.26;78.28
58785;BME280;44557;51.862;19.378;2023-06-22T04:11:29;99454.07;;;22.04;79.07
58785;BME280;44557;51.862;19.378;2023-06-22T04:13:30;99461.26;;;22.24;78.17
58785;BME280;44557;51.862;19.378;2023-06-22T04:15:32;99463.54;;;22.27;77.27
58785;BME280;44557;51.862;19.378;2023-06-22T04:17:33;99465.50;;;22.07;78.11
58785;BME280;44557;51.862;19.378;2023-06-22T04:19:35;99465.84;;;22.17;77.69
58785;BME280;44557;51.862;19.378;2023-06-22T04:21:37;99470.02;;;22.03;77.87
58785;BME280;44557;51.862;19.378;2023-06-22T04:23:39;99474.48;;;22.41;76.22
58785;BME280;44557;51.862;19.378;2023-06-22T04:25:40;99477.00;;;22.34;76.22
58785;BME280;44557;51.862;19.378;2023-06-22T04:27:42;99486.16;;;22.16;76.71
58785;BME280;44557;51.862;19.378;2023-06-22T04:29:44;99486.58;;;22.25;76.33
58785;BME280;44557;51.862;19.378;2023-06-22T04:31:50;99489.17;;;22.36;75.64
58785;BME280;44557;51.862;19.378;2023-06-22T04:33:52;99489.59;;;22.51;75.11
58785;BME280;44557;51.862;19.378;2023-06-22T04:35:54;99490.15;;;22.39;75.26
58785;BME280;44557;51.862;19.378;2023-06-22T04:37:58;99486.42;;;22.59;74.18
58785;BME280;44557;51.862;19.378;2023-06-22T04:40:00;99484.16;;;22.32;75.19
58785;BME280;44557;51.862;19.378;2023-06-22T04:42:01;99486.69;;;22.41;75.25
58785;BME280;44557;51.862;19.378;2023-06-22T04:44:03;99479.01;;;22.63;74.04
58785;BME280;44557;51.862;19.378;2023-06-22T04:46:06;99480.16;;;22.38;75.07
58785;BME280;44557;51.862;19.378;2023-06-22T04:48:08;99486.29;;;22.46;74.55
58785;BME280;44557;51.862;19.378;2023-06-22T04:50:13;99484.06;;;22.56;74.44
58785;BME280;44557;51.862;19.378;2023-06-22T04:52:15;99486.11;;;22.71;73.41
58785;BME280;44557;51.862;19.378;2023-06-22T04:54:22;99483.13;;;22.86;73.01
58785;BME280;44557;51.862;19.378;2023-06-22T04:56:23;99484.90;;;22.96;72.27
58785;BME280;44557;51.862;19.378;2023-06-22T04:58:29;99489.14;;;22.92;72.53
58785;BME280;44557;51.862;19.378;2023-06-22T05:00:33;99492.88;;;22.74;73.30
58785;BME280;44557;51.862;19.378;2023-06-22T05:02:40;99495.39;;;22.88;72.48
58785;BME280;44557;51.862;19.378;2023-06-22T05:04:42;99497.48;;;22.77;73.09
58785;BME280;44557;51.862;19.378;2023-06-22T05:06:44;99500.05;;;22.88;72.77
58785;BME280;44557;51.862;19.378;2023-06-22T05:08:47;99495.80;;;22.87;72.68
58785;BME280;44557;51.862;19.378;2023-06-22T05:10:48;99494.09;;;23.09;72.13
58785;BME280;44557;51.862;19.378;2023-06-22T05:12:50;99488.85;;;23.19;71.61
58785;BME280;44557;51.862;19.378;2023-06-22T05:14:51;99490.48;;;23.04;71.61
58785;BME280;44557;51.862;19.378;2023-06-22T05:16:53;99489.55;;;23.20;71.63
58785;BME280;44557;51.862;19.378;2023-06-22T05:18:55;99488.84;;;23.20;71.17
58785;BME280;44557;51.862;19.378;2023-06-22T05:20:58;99490.02;;;23.01;71.79
58785;BME280;44557;51.862;19.378;2023-06-22T05:23:00;99490.61;;;23.24;70.88
58785;BME280;44557;51.862;19.378;2023-06-22T05:25:02;99491.17;;;23.35;70.26
58785;BME280;44557;51.862;19.378;2023-06-22T05:27:04;99499.44;;;23.19;70.66
58785;BME280;44557;51.862;19.378;2023-06-22T05:29:06;99497.27;;;23.14;71.08
58785;BME280;44557;51.862;19.378;2023-06-22T05:31:08;99498.55;;;23.30;70.79
58785;BME280;44557;51.862;19.378;2023-06-22T05:33:10;99501.77;;;23.48;69.85
58785;BME280;44557;51.862;19.378;2023-06-22T05:35:11;99502.82;;;23.47;69.76
58785;BME280;44557;51.862;19.378;2023-06-22T05:37:13;99505.46;;;23.38;70.05
58785;BME280;44557;51.862;19.378;2023-06-22T05:39:15;99503.38;;;23.34;70.18
58785;BME280;44557;51.862;19.378;2023-06-22T05:41:17;99508.73;;;23.35;70.06
58785;BME280;44557;51.862;19.378;2023-06-22T05:43:18;99510.02;;;23.49;69.89
58785;BME280;44557;51.862;19.378;2023-06-22T05:45:20;99511.86;;;23.54;69.24
58785;BME280;44557;51.862;19.378;2023-06-22T05:47:21;99507.02;;;23.76;68.77
58785;BME280;44557;51.862;19.378;2023-06-22T05:49:24;99511.30;;;23.92;68.20
58785;BME280;44557;51.862;19.378;2023-06-22T05:51:30;99513.62;;;23.89;68.03
58785;BME280;44557;51.862;19.378;2023-06-22T05:53:32;99513.80;;;23.95;67.96
58785;BME280;44557;51.862;19.378;2023-06-22T05:55:34;99511.29;;;24.05;67.50
58785;BME280;44557;51.862;19.378;2023-06-22T05:57:35;99512.89;;;24.09;67.27
58785;BME280;44557;51.862;19.378;2023-06-22T05:59:37;99513.98;;;24.23;67.12
58785;BME280;44557;51.862;19.378;2023-06-22T06:01:39;99511.90;;;24.30;66.87
58785;BME280;44557;51.862;19.378;2023-06-22T06:03:41;99509.60;;;24.53;66.04
58785;BME280;44557;51.862;19.378;2023-06-22T06:05:43;99512.30;;;24.58;66.13
58785;BME280;44557;51.862;19.378;2023-06-22T06:07:46;99510.41;;;24.52;65.70
58785;BME280;44557;51.862;19.378;2023-06-22T06:09:47;99514.70;;;24.66;64.93
58785;BME280;44557;51.862;19.378;2023-06-22T06:11:49;99516.48;;;24.73;63.92
58785;BME280;44557;51.862;19.378;2023-06-22T06:13:51;99514.95;;;24.73;64.00
58785;BME280;44557;51.862;19.378;2023-06-22T06:15:52;99510.75;;;24.74;63.62
58785;BME280;44557;51.862;19.378;2023-06-22T06:17:56;99515.55;;;24.83;63.07
58785;BME280;44557;51.862;19.378;2023-06-22T06:20:01;99517.56;;;25.03;62.08
58785;BME280;44557;51.862;19.378;2023-06-22T06:22:04;99515.77;;;25.12;61.52
58785;BME280;44557;51.862;19.378;2023-06-22T06:24:05;99519.54;;;25.07;61.66
58785;BME280;44557;51.862;19.378;2023-06-22T06:26:08;99516.95;;;25.11;61.54
58785;BME280;44557;51.862;19.378;2023-06-22T06:28:09;99525.90;;;25.23;61.01
58785;BME280;44557;51.862;19.378;2023-06-22T06:30:12;99524.44;;;25.53;60.26
58785;BME280;44557;51.862;19.378;2023-06-22T06:32:14;99526.19;;;25.63;59.58
58785;BME280;44557;51.862;19.378;2023-06-22T06:34:16;99523.63;;;25.89;58.57
58785;BME280;44557;51.862;19.378;2023-06-22T06:36:18;99526.45;;;25.52;59.23
58785;BME280;44557;51.862;19.378;2023-06-22T06:38:19;99527.03;;;25.43;59.57
58785;BME280;44557;51.862;19.378;2023-06-22T06:40:21;99531.33;;;25.58;59.11
58785;BME280;44557;51.862;19.378;2023-06-22T06:42:23;99530.80;;;25.83;58.16
58785;BME280;44557;51.862;19.378;2023-06-22T06:44:25;99525.30;;;25.95;56.49
58785;BME280;44557;51.862;19.378;2023-06-22T06:46:27;99522.80;;;25.92;55.42
58785;BME280;44557;51.862;19.378;2023-06-22T06:48:28;99527.27;;;25.91;55.61
58785;BME280;44557;51.862;19.378;2023-06-22T06:50:30;99530.05;;;25.89;56.02
58785;BME280;44557;51.862;19.378;2023-06-22T06:52:32;99527.99;;;26.17;55.98
58785;BME280;44557;51.862;19.378;2023-06-22T06:54:34;99527.16;;;26.24;55.04
58785;BME280;44557;51.862;19.378;2023-06-22T06:56:35;99526.27;;;26.29;54.34
58785;BME280;44557;51.862;19.378;2023-06-22T06:58:40;99530.32;;;26.20;53.31
58785;BME280;44557;51.862;19.378;2023-06-22T07:00:43;99524.27;;;26.60;52.85
58785;BME280;44557;51.862;19.378;2023-06-22T07:02:45;99524.91;;;26.66;53.19
58785;BME280;44557;51.862;19.378;2023-06-22T07:04:48;99522.52;;;26.58;53.04
58785;BME280;44557;51.862;19.378;2023-06-22T07:06:50;99522.13;;;26.70;51.78
58785;BME280;44557;51.862;19.378;2023-06-22T07:08:52;99521.33;;;26.73;51.37
58785;BME280;44557;51.862;19.378;2023-06-22T07:10:55;99515.42;;;26.94;50.89
58785;BME280;44557;51.862;19.378;2023-06-22T07:12:56;99511.80;;;26.91;50.75
58785;BME280;44557;51.862;19.378;2023-06-22T07:15:04;99509.15;;;26.93;49.59
58785;BME280;44557;51.862;19.378;2023-06-22T07:17:09;99511.73;;;26.67;50.64
58785;BME280;44557;51.862;19.378;2023-06-22T07:19:11;99509.61;;;27.01;50.13
58785;BME280;44557;51.862;19.378;2023-06-22T07:21:13;99509.86;;;27.05;50.21
58785;BME280;44557;51.862;19.378;2023-06-22T07:23:14;99504.27;;;26.98;50.65
58785;BME280;44557;51.862;19.378;2023-06-22T07:25:16;99504.23;;;27.09;50.54
58785;BME280;44557;51.862;19.378;2023-06-22T07:27:19;99503.54;;;27.45;49.62
58785;BME280;44557;51.862;19.378;2023-06-22T07:29:21;99499.71;;;27.48;48.61
58785;BME280;44557;51.862;19.378;2023-06-22T07:31:25;99500.82;;;27.53;48.06
58785;BME280;44557;51.862;19.378;2023-06-22T07:33:27;99501.80;;;27.60;47.31
58785;BME280;44557;51.862;19.378;2023-06-22T07:35:32;99497.64;;;27.68;47.39
58785;BME280;44557;51.862;19.378;2023-06-22T07:37:34;99501.98;;;27.66;45.96
58785;BME280;44557;51.862;19.378;2023-06-22T07:39:36;99500.77;;;27.86;45.70
58785;BME280;44557;51.862;19.378;2023-06-22T07:41:39;99494.81;;;27.61;44.97
58785;BME280;44557;51.862;19.378;2023-06-22T07:43:41;99506.73;;;27.66;44.02
58785;BME280;44557;51.862;19.378;2023-06-22T07:45:47;99507.72;;;27.86;43.26
58785;BME280;44557;51.862;19.378;2023-06-22T07:47:53;99503.03;;;27.66;43.02
58785;BME280;44557;51.862;19.378;2023-06-22T07:49:55;99505.60;;;27.91;42.95
58785;BME280;44557;51.862;19.378;2023-06-22T07:51:59;99508.27;;;27.94;41.89
58785;BME280;44557;51.862;19.378;2023-06-22T07:54:02;99504.48;;;28.30;42.12
58785;BME280;44557;51.862;19.378;2023-06-22T07:56:03;99509.20;;;28.25;43.05
58785;BME280;44557;51.862;19.378;2023-06-22T07:58:08;99506.39;;;28.44;43.09
58785;BME280;44557;51.862;19.378;2023-06-22T08:00:10;99504.02;;;28.34;42.83
58785;BME280;44557;51.862;19.378;2023-06-22T08:02:18;99504.70;;;28.39;42.84
58785;BME280;44557;51.862;19.378;2023-06-22T08:04:20;99510.80;;;28.62;42.79
58785;BME280;44557;51.862;19.378;2023-06-22T08:06:22;99513.73;;;28.68;41.51
58785;BME280;44557;51.862;19.378;2023-06-22T08:08:24;99514.11;;;28.81;41.24
58785;BME280;44557;51.862;19.378;2023-06-22T08:10:25;99516.27;;;28.79;40.53
58785;BME280;44557;51.862;19.378;2023-06-22T08:12:27;99519.37;;;28.75;39.82
58785;BME280;44557;51.862;19.378;2023-06-22T08:14:29;99519.69;;;28.62;40.27
58785;BME280;44557;51.862;19.378;2023-06-22T08:16:31;99518.54;;;28.87;39.87
58785;BME280;44557;51.862;19.378;2023-06-22T08:18:33;99518.63;;;29.11;39.67
58785;BME280;44557;51.862;19.378;2023-06-22T08:20:34;99522.67;;;28.99;39.21
58785;BME280;44557;51.862;19.378;2023-06-22T08:22:36;99527.42;;;28.78;39.35
58785;BME280;44557;51.862;19.378;2023-06-22T08:24:38;99526.97;;;29.05;39.94
58785;BME280;44557;51.862;19.378;2023-06-22T08:26:39;99530.81;;;28.82;38.43
58785;BME280;44557;51.862;19.378;2023-06-22T08:28:41;99535.08;;;28.99;37.09
58785;BME280;44557;51.862;19.378;2023-06-22T08:30:43;99530.42;;;29.10;36.73
58785;BME280;44557;51.862;19.378;2023-06-22T08:32:44;99527.64;;;29.34;36.96
58785;BME280;44557;51.862;19.378;2023-06-22T08:34:46;99532.49;;;29.29;36.61
58785;BME280;44557;51.862;19.378;2023-06-22T08:36:48;99529.69;;;29.32;37.34
58785;BME280;44557;51.862;19.378;2023-06-22T08:38:53;99541.54;;;29.41;38.64
58785;BME280;44557;51.862;19.378;2023-06-22T08:40:55;99542.41;;;29.39;38.88
58785;BME280;44557;51.862;19.378;2023-06-22T08:42:57;99542.13;;;29.74;38.31
58785;BME280;44557;51.862;19.378;2023-06-22T08:44:59;99543.70;;;29.89;38.01
58785;BME280;44557;51.862;19.378;2023-06-22T08:47:01;99544.45;;;29.85;37.33
58785;BME280;44557;51.862;19.378;2023-06-22T08:49:03;99543.10;;;30.09;36.60
58785;BME280;44557;51.862;19.378;2023-06-22T08:51:05;99547.15;;;29.85;37.26
58785;BME280;44557;51.862;19.378;2023-06-22T08:53:07;99545.60;;;29.79;37.57
58785;BME280;44557;51.862;19.378;2023-06-22T08:55:09;99547.34;;;29.71;37.46
58785;BME280;44557;51.862;19.378;2023-06-22T08:57:11;99547.50;;;29.95;36.43
58785;BME280;44557;51.862;19.378;2023-06-22T08:59:12;99538.57;;;29.93;35.20
58785;BME280;44557;51.862;19.378;2023-06-22T09:01:14;99536.23;;;29.65;34.23
58785;BME280;44557;51.862;19.378;2023-06-22T09:03:16;99546.98;;;29.64;34.46
58785;BME280;44557;51.862;19.378;2023-06-22T09:05:21;99551.52;;;29.94;34.19
58785;BME280;44557;51.862;19.378;2023-06-22T09:07:23;99550.28;;;29.98;33.60
58785;BME280;44557;51.862;19.378;2023-06-22T09:09:28;99545.20;;;30.01;34.03
58785;BME280;44557;51.862;19.378;2023-06-22T09:11:30;99547.30;;;30.08;34.42
58785;BME280;44557;51.862;19.378;2023-06-22T09:13:32;99545.44;;;30.28;33.80
58785;BME280;44557;51.862;19.378;2023-06-22T09:15:34;99537.90;;;30.04;34.82
58785;BME280;44557;51.862;19.378;2023-06-22T09:17:36;99543.92;;;30.31;35.13
58785;BME280;44557;51.862;19.378;2023-06-22T09:19:38;99535.33;;;30.66;34.36
58785;BME280;44557;51.862;19.378;2023-06-22T09:21:40;99534.79;;;30.41;34.68
58785;BME280;44557;51.862;19.378;2023-06-22T09:23:41;99529.44;;;30.46;34.73
58785;BME280;44557;51.862;19.378;2023-06-22T09:25:43;99522.81;;;30.61;34.79
58785;BME280;44557;51.862;19.378;2023-06-22T09:27:45;99522.05;;;30.68;34.37
58785;BME280;44557;51.862;19.378;2023-06-22T09:29:47;99521.95;;;30.25;35.36
58785;BME280;44557;51.862;19.378;2023-06-22T09:31:48;99522.70;;;30.33;34.90
58785;BME280;44557;51.862;19.378;2023-06-22T09:33:53;99520.88;;;30.27;33.68
58785;BME280;44557;51.862;19.378;2023-06-22T09:35:55;99514.41;;;30.39;32.87
58785;BME280;44557;51.862;19.378;2023-06-22T09:37:57;99516.98;;;30.18;31.88
58785;BME280;44557;51.862;19.378;2023-06-22T09:39:59;99515.25;;;30.18;32.16
58785;BME280;44557;51.862;19.378;2023-06-22T09:42:01;99516.37;;;30.40;32.46
58785;BME280;44557;51.862;19.378;2023-06-22T09:44:03;99516.19;;;30.67;31.29
58785;BME280;44557;51.862;19.378;2023-06-22T09:46:05;99512.61;;;30.43;29.37
58785;BME280;44557;51.862;19.378;2023-06-22T09:48:08;99516.44;;;30.24;28.81
58785;BME280;44557;51.862;19.378;2023-06-22T09:50:11;99518.91;;;30.47;29.71
58785;BME280;44557;51.862;19.378;2023-06-22T09:52:13;99513.77;;;30.46;30.16
58785;BME280;44557;51.862;19.378;2023-06-22T09:54:15;99508.57;;;30.31;29.53
58785;BME280;44557;51.862;19.378;2023-06-22T09:56:17;99508.41;;;30.52;29.25
58785;BME280;44557;51.862;19.378;2023-06-22T09:58:19;99505.12;;;30.55;30.20
58785;BME280;44557;51.862;19.378;2023-06-22T10:00:20;99508.34;;;30.58;30.50
58785;BME280;44557;51.862;19.378;2023-06-22T10:02:23;99505.38;;;30.51;31.26
58785;BME280;44557;51.862;19.378;2023-06-22T10:04:25;99503.57;;;30.77;31.70
58785;BME280;44557;51.862;19.378;2023-06-22T10:06:27;99503.22;;;31.14;31.53
58785;BME280;44557;51.862;19.378;2023-06-22T10:08:29;99499.11;;;30.90;31.94
58785;BME280;44557;51.862;19.378;2023-06-22T10:10:31;99500.55;;;30.77;32.54
58785;BME280;44557;51.862;19.378;2023-06-22T10:12:32;99497.64;;;30.85;32.38
58785;BME280;44557;51.862;19.378;2023-06-22T10:14:34;99495.13;;;31.02;32.20
58785;BME280;44557;51.862;19.378;2023-06-22T10:16:36;99491.09;;;30.87;32.25
58785;BME280;44557;51.862;19.378;2023-06-22T10:18:38;99492.48;;;30.86;32.69
58785;BME280;44557;51.862;19.378;2023-06-22T10:20:39;99495.14;;;30.92;32.34
58785;BME280;44557;51.862;19.378;2023-06-22T10:22:41;99498.14;;;31.00;32.35
58785;BME280;44557;51.862;19.378;2023-06-22T10:24:43;99494.17;;;31.05;32.44
58785;BME280;44557;51.862;19.378;2023-06-22T10:26:46;99494.64;;;31.16;32.12
58785;BME280;44557;51.862;19.378;2023-06-22T10:28:47;99494.30;;;31.07;32.41
58785;BME280;44557;51.862;19.378;2023-06-22T10:30:49;99494.63;;;31.16;32.07
58785;BME280;44557;51.862;19.378;2023-06-22T10:32:50;99499.67;;;31.02;31.40
58785;BME280;44557;51.862;19.378;2023-06-22T10:34:52;99506.67;;;31.18;31.34
58785;BME280;44557;51.862;19.378;2023-06-22T10:36:54;99510.23;;;30.79;32.33
58785;BME280;44557;51.862;19.378;2023-06-22T10:38:56;99503.66;;;31.21;32.48
58785;BME280;44557;51.862;19.378;2023-06-22T10:41:00;99499.34;;;31.12;32.20
58785;BME280;44557;51.862;19.378;2023-06-22T10:43:03;99504.25;;;30.98;32.32